createdAt,value
2023-08-08T00:01:00.408Z,1.30
2023-08-08T00:03:27.948Z,1.27
2023-08-08T00:05:55.299Z,1.42
2023-08-08T00:08:22.394Z,1.50
2023-08-08T00:10:49.410Z,1.60
2023-08-08T00:13:16.539Z,1.50
2023-08-08T00:15:43.721Z,1.45
2023-08-08T00:18:10.860Z,1.45
2023-08-08T00:20:39.068Z,1.30
2023-08-08T00:23:06.273Z,2.00
2023-08-08T00:25:33.393Z,1.50
2023-08-08T00:28:00.437Z,1.50
2023-08-08T00:30:28.973Z,1.50
2023-08-08T00:32:56.814Z,1.52
2023-08-08T00:35:24.275Z,1.42
2023-08-08T00:37:51.399Z,1.48
2023-08-08T00:40:19.554Z,1.50
2023-08-08T00:42:46.647Z,1.50
2023-08-08T00:45:13.733Z,1.50
2023-08-08T00:47:40.929Z,1.33
2023-08-08T00:50:09.749Z,1.77
2023-08-08T00:52:38.622Z,1.52
2023-08-08T00:55:06.608Z,1.70
2023-08-08T00:57:33.738Z,1.50
2023-08-08T01:00:00.812Z,1.48
2023-08-08T01:02:28.073Z,1.70
2023-08-08T01:04:55.200Z,1.70
2023-08-08T01:07:57.236Z,1.77
2023-08-08T01:10:35.316Z,1.77
2023-08-08T01:13:08.478Z,1.80
2023-08-08T01:15:38.524Z,1.77
2023-08-08T01:18:10.115Z,1.60
2023-08-08T01:20:38.638Z,1.60
2023-08-08T01:23:26.311Z,1.70
2023-08-08T01:25:56.816Z,1.60
2023-08-08T01:28:24.706Z,1.80
2023-08-08T01:30:52.586Z,1.55
2023-08-08T01:33:19.914Z,1.50
2023-08-08T01:35:54.392Z,1.70
2023-08-08T01:38:35.311Z,1.80
2023-08-08T01:41:06.041Z,1.60
2023-08-08T01:43:34.489Z,1.65
2023-08-08T01:46:04.029Z,1.60
2023-08-08T01:48:31.648Z,1.58
2023-08-08T01:50:58.933Z,1.65
2023-08-08T01:53:26.083Z,1.60
2023-08-08T01:55:54.237Z,1.90
2023-08-08T01:58:21.262Z,1.60
2023-08-08T02:00:48.782Z,1.60
2023-08-08T02:03:16.109Z,1.75
2023-08-08T02:05:43.992Z,1.90
2023-08-08T02:08:11.345Z,1.83
2023-08-08T02:10:38.360Z,1.80
2023-08-08T02:13:05.943Z,1.80
2023-08-08T02:15:33.058Z,1.83
2023-08-08T02:18:01.435Z,2.00
2023-08-08T02:20:28.915Z,1.70
2023-08-08T02:22:55.892Z,2.05
2023-08-08T02:25:23.006Z,1.70
2023-08-08T02:27:50.264Z,1.70
2023-08-08T02:30:17.541Z,1.88
2023-08-08T02:32:44.881Z,1.80
2023-08-08T02:35:12.031Z,1.80
2023-08-08T02:37:39.031Z,1.80
2023-08-08T02:40:07.825Z,1.70
2023-08-08T02:42:35.083Z,2.35
2023-08-08T02:45:02.351Z,1.50
2023-08-08T02:47:29.460Z,1.77
2023-08-08T02:49:56.640Z,1.73
2023-08-08T02:52:23.872Z,1.60
2023-08-08T02:54:51.136Z,1.60
2023-08-08T02:57:18.386Z,1.85
2023-08-08T02:59:45.471Z,1.67
2023-08-08T03:02:12.656Z,1.65
2023-08-08T03:04:40.733Z,1.70
2023-08-08T03:07:09.136Z,1.70
2023-08-08T03:09:37.967Z,1.90
2023-08-08T03:12:05.691Z,1.80
2023-08-08T03:14:34.883Z,1.70
2023-08-08T03:17:03.805Z,2.13
2023-08-08T03:19:32.194Z,1.90
2023-08-08T03:22:01.385Z,2.03
2023-08-08T03:24:28.737Z,1.80
2023-08-08T03:26:55.840Z,1.90
2023-08-08T03:29:23.038Z,1.90
2023-08-08T03:31:50.318Z,1.95
2023-08-08T03:34:18.405Z,1.70
2023-08-08T03:36:46.351Z,1.90
2023-08-08T03:39:13.978Z,1.98
2023-08-08T03:41:41.076Z,2.08
2023-08-08T03:44:08.242Z,2.00
2023-08-08T03:46:36.175Z,2.08
2023-08-08T03:49:03.566Z,2.20
2023-08-08T03:51:30.816Z,2.10
2023-08-08T03:53:58.581Z,2.05
2023-08-08T03:56:25.673Z,2.17
2023-08-08T03:58:54.728Z,2.45
2023-08-08T04:01:22.651Z,2.30
2023-08-08T04:03:49.840Z,1.92
2023-08-08T04:06:17.005Z,2.00
2023-08-08T04:08:44.404Z,2.47
2023-08-08T04:11:11.461Z,2.30
2023-08-08T04:13:38.469Z,2.00
2023-08-08T04:16:06.312Z,2.25
2023-08-08T04:18:33.426Z,2.10
2023-08-08T04:21:00.409Z,1.90
2023-08-08T04:23:27.665Z,2.10
2023-08-08T04:25:55.271Z,1.73
2023-08-08T04:28:22.349Z,2.00
2023-08-08T04:30:49.402Z,2.08
2023-08-08T04:33:16.602Z,2.25
2023-08-08T04:35:43.667Z,1.98
2023-08-08T04:38:10.951Z,2.28
2023-08-08T04:40:39.145Z,2.38
2023-08-08T04:43:06.674Z,2.20
2023-08-08T04:45:34.632Z,2.08
2023-08-08T04:48:01.799Z,1.80
2023-08-08T04:50:29.588Z,1.73
2023-08-08T04:52:56.801Z,1.83
2023-08-08T04:55:24.133Z,1.88
2023-08-08T04:57:51.195Z,1.85
2023-08-08T05:00:18.843Z,2.08
2023-08-08T05:02:45.994Z,1.90
2023-08-08T05:05:13.125Z,2.38
2023-08-08T05:07:40.312Z,2.08
2023-08-08T05:10:07.852Z,2.28
2023-08-08T05:12:34.975Z,2.20
2023-08-08T05:15:02.379Z,2.03
2023-08-08T05:17:33.429Z,2.13
2023-08-08T05:20:00.493Z,2.00
2023-08-08T05:22:27.656Z,2.15
2023-08-08T05:24:54.695Z,2.13
2023-08-08T05:27:21.739Z,2.20
2023-08-08T05:29:48.779Z,2.20
2023-08-08T05:32:15.830Z,1.83
2023-08-08T05:34:42.973Z,2.10
2023-08-08T05:37:16.572Z,2.33
2023-08-08T05:39:45.891Z,2.22
2023-08-08T05:42:13.465Z,2.30
2023-08-08T05:44:43.065Z,2.17
2023-08-08T05:47:10.365Z,2.45
2023-08-08T05:49:37.607Z,2.22
2023-08-08T05:52:05.223Z,2.30
2023-08-08T05:54:32.261Z,2.20
2023-08-08T05:56:59.607Z,2.25
2023-08-08T05:59:26.627Z,2.15
2023-08-08T06:01:53.800Z,2.15
2023-08-08T06:04:20.961Z,2.28
2023-08-08T06:06:50.260Z,2.38
2023-08-08T06:09:18.216Z,2.08
2023-08-08T06:11:45.532Z,2.10
2023-08-08T06:14:12.629Z,2.20
2023-08-08T06:16:39.862Z,2.28
2023-08-08T06:19:07.320Z,2.08
2023-08-08T06:21:34.452Z,1.90
2023-08-08T06:24:01.451Z,2.00
2023-08-08T06:26:28.787Z,2.25
2023-08-08T06:28:55.960Z,1.70
2023-08-08T06:31:23.532Z,1.90
2023-08-08T06:33:50.723Z,2.25
2023-08-08T06:36:17.844Z,2.28
2023-08-08T06:38:45.076Z,1.90
2023-08-08T06:41:12.186Z,1.90
2023-08-08T06:43:39.420Z,1.85
2023-08-08T06:46:06.567Z,1.80
2023-08-08T06:48:33.658Z,1.80
2023-08-08T06:51:01.338Z,2.08
2023-08-08T06:53:28.409Z,1.92
2023-08-08T06:55:55.520Z,1.92
2023-08-08T06:58:22.586Z,2.00
2023-08-08T07:00:49.699Z,1.90
2023-08-08T07:03:16.949Z,1.88
2023-08-08T07:05:44.762Z,1.92
2023-08-08T07:08:11.813Z,1.85
2023-08-08T07:10:38.920Z,1.58
2023-08-08T07:13:05.973Z,1.90
2023-08-08T07:15:33.145Z,1.80
2023-08-08T07:18:01.411Z,1.80
2023-08-08T07:20:28.570Z,1.73
2023-08-08T07:22:55.921Z,1.70
2023-08-08T07:25:22.955Z,1.67
2023-08-08T07:27:49.966Z,1.98
2023-08-08T07:30:17.388Z,1.90
2023-08-08T07:32:44.716Z,1.90
2023-08-08T07:35:12.222Z,1.90
2023-08-08T07:37:40.160Z,2.13
2023-08-08T07:40:15.576Z,2.00
2023-08-08T07:42:43.246Z,2.40
2023-08-08T07:45:10.779Z,2.00
2023-08-08T07:47:38.319Z,2.22
2023-08-08T07:50:06.084Z,1.90
2023-08-08T07:52:33.591Z,1.85
2023-08-08T07:55:01.108Z,2.42
2023-08-08T07:57:29.430Z,1.85
2023-08-08T07:59:56.840Z,1.83
2023-08-08T08:02:24.661Z,2.83
2023-08-08T08:04:52.915Z,2.10
2023-08-08T08:07:20.432Z,1.70
2023-08-08T08:09:47.847Z,1.80
2023-08-08T08:12:15.335Z,2.10
2023-08-08T08:14:42.865Z,1.83
2023-08-08T08:17:10.389Z,2.22
2023-08-08T08:19:38.236Z,2.10
2023-08-08T08:22:05.808Z,1.83
2023-08-08T08:24:33.645Z,1.75
2023-08-08T08:27:02.557Z,1.60
2023-08-08T08:29:30.120Z,1.92
2023-08-08T08:31:58.010Z,1.50
2023-08-08T08:34:25.824Z,1.40
2023-08-08T08:36:53.231Z,1.55
2023-08-08T08:39:20.763Z,1.75
2023-08-08T08:41:51.026Z,1.80
2023-08-08T08:44:19.072Z,1.50
2023-08-08T08:46:49.770Z,1.40
2023-08-08T08:49:19.413Z,1.63
2023-08-08T08:51:46.900Z,1.70
2023-08-08T08:54:17.119Z,1.77
2023-08-08T08:56:44.804Z,1.83
2023-08-08T08:59:12.282Z,1.70
2023-08-08T09:01:39.753Z,1.77
2023-08-08T09:04:10.172Z,1.70
2023-08-08T09:06:39.877Z,1.70
2023-08-08T09:09:16.249Z,1.60
2023-08-08T09:11:47.402Z,1.45
2023-08-08T09:14:18.678Z,1.75
2023-08-08T09:16:47.205Z,1.77
2023-08-08T09:19:15.530Z,1.42
2023-08-08T09:21:42.940Z,1.50
2023-08-08T09:24:10.509Z,1.60
2023-08-08T09:26:38.387Z,1.75
2023-08-08T09:29:06.213Z,1.50
2023-08-08T09:31:35.937Z,1.50
2023-08-08T09:34:04.679Z,1.45
2023-08-08T09:36:34.279Z,1.60
2023-08-08T09:39:02.207Z,1.35
2023-08-08T09:41:29.782Z,1.42
2023-08-08T09:43:57.179Z,1.30
2023-08-08T09:46:24.828Z,1.63
2023-08-08T09:48:52.572Z,1.58
2023-08-08T09:51:20.718Z,1.45
2023-08-08T09:53:48.814Z,1.85
2023-08-08T09:56:16.574Z,1.83
2023-08-08T09:58:44.544Z,1.98
2023-08-08T10:01:14.140Z,2.00
2023-08-08T10:03:44.762Z,1.63
2023-08-08T10:06:12.141Z,1.75
2023-08-08T10:08:39.403Z,1.77
2023-08-08T10:11:10.223Z,1.80
2023-08-08T10:13:38.041Z,1.65
2023-08-08T10:16:10.197Z,1.83
2023-08-08T10:18:37.676Z,1.50
2023-08-08T10:21:10.042Z,1.40
2023-08-08T10:23:38.620Z,1.70
2023-08-08T10:26:06.564Z,1.67
2023-08-08T10:28:35.361Z,1.63
2023-08-08T10:31:03.427Z,1.40
2023-08-08T10:33:41.706Z,1.42
2023-08-08T10:36:10.198Z,1.58
2023-08-08T10:38:44.227Z,1.38
2023-08-08T10:41:17.069Z,1.35
2023-08-08T10:43:57.991Z,1.50
2023-08-08T10:46:30.226Z,1.58
2023-08-08T10:49:06.639Z,1.73
2023-08-08T10:51:45.373Z,1.40
2023-08-08T10:54:19.329Z,1.40
2023-08-08T10:56:56.659Z,1.40
2023-08-08T10:59:26.599Z,1.75
2023-08-08T11:01:54.771Z,1.50
2023-08-08T11:04:27.515Z,1.52
2023-08-08T11:06:55.688Z,1.63
2023-08-08T11:09:23.622Z,1.88
2023-08-08T11:11:50.945Z,2.42
2023-08-08T11:14:20.829Z,1.88
2023-08-08T11:16:49.861Z,1.88
2023-08-08T11:19:17.692Z,2.20
2023-08-08T11:21:46.482Z,1.83
2023-08-08T11:24:14.538Z,2.05
2023-08-08T11:26:43.175Z,1.80
2023-08-08T11:29:10.687Z,2.22
2023-08-08T11:31:39.073Z,1.90
2023-08-08T11:34:06.588Z,2.05
2023-08-08T11:36:36.073Z,2.10
2023-08-08T11:39:09.555Z,2.10
2023-08-08T11:41:37.968Z,1.92
2023-08-08T11:44:06.240Z,1.65
2023-08-08T11:46:33.912Z,1.92
2023-08-08T11:49:08.221Z,1.95
2023-08-08T11:51:36.271Z,1.90
2023-08-08T11:54:05.425Z,2.00
2023-08-08T11:56:37.630Z,1.90
2023-08-08T11:59:06.817Z,2.10
2023-08-08T12:01:35.544Z,2.78
2023-08-08T12:04:09.698Z,2.25
2023-08-08T12:06:43.763Z,2.53
2023-08-08T12:09:14.518Z,2.45
2023-08-08T12:11:41.801Z,2.60
2023-08-08T12:14:10.831Z,2.00
2023-08-08T12:16:40.394Z,2.05
2023-08-08T12:19:12.501Z,1.98
2023-08-08T12:21:39.880Z,1.80
2023-08-08T12:24:07.514Z,1.83
2023-08-08T12:26:34.533Z,1.73
2023-08-08T12:29:01.703Z,1.70
2023-08-08T12:31:30.309Z,1.73
2023-08-08T12:33:57.646Z,1.60
2023-08-08T12:36:24.785Z,1.50
2023-08-08T12:38:52.288Z,1.80
2023-08-08T12:41:19.478Z,1.85
2023-08-08T12:43:46.888Z,1.90
2023-08-08T12:46:14.057Z,1.80
2023-08-08T12:48:41.261Z,1.50
2023-08-08T12:51:09.882Z,2.03
2023-08-08T12:53:37.032Z,1.63
2023-08-08T12:56:04.340Z,1.63
2023-08-08T12:58:31.640Z,1.50
2023-08-08T13:00:59.044Z,1.60
2023-08-08T13:03:26.281Z,1.88
2023-08-08T13:05:53.715Z,2.00
2023-08-08T13:08:20.928Z,1.80
2023-08-08T13:10:48.168Z,1.90
2023-08-08T13:13:15.353Z,1.70
2023-08-08T13:15:42.392Z,2.10
2023-08-08T13:18:09.603Z,1.90
2023-08-08T13:20:37.118Z,1.75
2023-08-08T13:23:05.410Z,1.90
2023-08-08T13:25:35.469Z,2.00
2023-08-08T13:28:04.341Z,1.90
2023-08-08T13:30:32.268Z,1.88
2023-08-08T13:33:00.795Z,1.90
2023-08-08T13:35:31.549Z,2.08
2023-08-08T13:37:58.801Z,1.92
2023-08-08T13:40:26.599Z,2.00
2023-08-08T13:42:54.797Z,1.90
2023-08-08T13:45:24.029Z,1.75
2023-08-08T13:47:51.679Z,1.67
2023-08-08T13:50:19.685Z,1.90
2023-08-08T13:52:46.916Z,1.90
2023-08-08T13:55:14.489Z,2.10
2023-08-08T13:57:41.680Z,1.70
2023-08-08T14:00:12.216Z,1.50
2023-08-08T14:02:39.944Z,1.75
2023-08-08T14:05:11.563Z,2.08
2023-08-08T14:07:38.780Z,1.90
2023-08-08T14:10:06.854Z,2.00
2023-08-08T14:12:33.944Z,1.40
2023-08-08T14:15:01.227Z,1.50
2023-08-08T14:17:28.841Z,1.60
2023-08-08T14:19:56.308Z,1.50
2023-08-08T14:22:23.493Z,1.63
2023-08-08T14:24:50.717Z,1.60
2023-08-08T14:27:17.846Z,1.67
2023-08-08T14:29:45.191Z,1.88
2023-08-08T14:32:12.442Z,1.60
2023-08-08T14:34:40.689Z,1.83
2023-08-08T14:37:08.381Z,1.63
2023-08-08T14:39:36.017Z,2.38
2023-08-08T14:42:04.135Z,1.80
2023-08-08T14:44:33.675Z,1.60
2023-08-08T14:47:01.320Z,1.90
2023-08-08T14:49:28.910Z,1.60
2023-08-08T14:51:56.145Z,1.67
2023-08-08T14:54:23.410Z,1.65
2023-08-08T14:56:50.678Z,1.60
2023-08-08T14:59:17.933Z,1.60
2023-08-08T15:01:45.341Z,1.73
2023-08-08T15:04:13.101Z,1.50
2023-08-08T15:06:42.666Z,1.92
2023-08-08T15:09:09.909Z,1.80
2023-08-08T15:11:37.102Z,2.00
2023-08-08T15:14:04.252Z,1.67
2023-08-08T15:16:31.460Z,1.80
2023-08-08T15:18:59.725Z,1.52
2023-08-08T15:21:26.882Z,1.50
2023-08-08T15:23:54.141Z,1.70
2023-08-08T15:26:23.371Z,1.88
2023-08-08T15:28:51.168Z,1.83
2023-08-08T15:31:18.706Z,1.90
2023-08-08T15:33:46.759Z,1.42
2023-08-08T15:36:14.545Z,1.80
2023-08-08T15:38:43.336Z,1.63
2023-08-08T15:41:13.223Z,2.05
2023-08-08T15:43:41.030Z,1.70
2023-08-08T15:46:08.933Z,1.50
2023-08-08T15:48:36.532Z,1.73
2023-08-08T15:51:03.990Z,1.83
2023-08-08T15:53:31.726Z,1.80
2023-08-08T15:55:59.335Z,1.90
2023-08-08T15:58:27.547Z,1.80
2023-08-08T16:00:56.893Z,1.90
2023-08-08T16:03:24.908Z,2.08
2023-08-08T16:05:52.596Z,1.80
2023-08-08T16:08:19.651Z,1.83
2023-08-08T16:10:47.063Z,2.05
2023-08-08T16:13:14.170Z,2.15
2023-08-08T16:15:42.527Z,1.80
2023-08-08T16:18:09.864Z,1.73
2023-08-08T16:20:37.449Z,2.13
2023-08-08T16:23:05.322Z,1.90
2023-08-08T16:25:33.180Z,1.90
2023-08-08T16:28:00.850Z,1.77
2023-08-08T16:30:28.740Z,2.25
2023-08-08T16:32:56.244Z,1.77
2023-08-08T16:35:23.967Z,2.20
2023-08-08T16:37:51.615Z,2.00
2023-08-08T16:40:19.306Z,1.98
2023-08-08T16:42:47.022Z,2.25
2023-08-08T16:45:14.684Z,2.38
2023-08-08T16:47:42.042Z,2.17
2023-08-08T16:50:09.640Z,2.10
2023-08-08T16:52:36.738Z,2.55
2023-08-08T16:55:04.245Z,2.20
2023-08-08T16:57:31.598Z,2.08
2023-08-08T16:59:58.924Z,2.00
2023-08-08T17:02:26.146Z,2.15
2023-08-08T17:04:53.166Z,2.45
2023-08-08T17:07:20.428Z,2.25
2023-08-08T17:09:47.509Z,2.35
2023-08-08T17:12:14.900Z,2.38
2023-08-08T17:14:42.067Z,2.20
2023-08-08T17:17:09.376Z,2.60
2023-08-08T17:19:36.654Z,2.33
2023-08-08T17:22:04.161Z,2.13
2023-08-08T17:24:35.323Z,2.30
2023-08-08T17:27:06.525Z,2.40
2023-08-08T17:29:33.940Z,2.20
2023-08-08T17:32:01.425Z,2.30
2023-08-08T17:34:28.998Z,2.30
2023-08-08T17:36:56.204Z,2.38
2023-08-08T17:39:23.564Z,2.50
2023-08-08T17:41:50.927Z,2.38
2023-08-08T17:44:18.053Z,2.30
2023-08-08T17:46:45.418Z,2.50
2023-08-08T17:49:12.605Z,2.30
2023-08-08T17:51:39.713Z,2.42
2023-08-08T17:54:07.324Z,2.47
2023-08-08T17:56:34.637Z,2.17
2023-08-08T17:59:01.829Z,2.38
2023-08-08T18:01:29.048Z,2.60
2023-08-08T18:03:56.266Z,2.30
2023-08-08T18:06:23.478Z,2.40
2023-08-08T18:08:50.669Z,2.40
2023-08-08T18:11:18.569Z,2.40
2023-08-08T18:13:45.829Z,2.88
2023-08-08T18:16:13.073Z,2.80
2023-08-08T18:18:40.313Z,2.58
2023-08-08T18:21:07.946Z,2.65
2023-08-08T18:23:35.317Z,2.40
2023-08-08T18:26:04.044Z,2.50
2023-08-08T18:28:32.260Z,2.50
2023-08-08T18:30:59.394Z,2.45
2023-08-08T18:33:26.713Z,2.67
2023-08-08T18:35:54.120Z,2.90
2023-08-08T18:38:21.349Z,3.00
2023-08-08T18:40:48.428Z,2.85
2023-08-08T18:43:15.587Z,3.42
2023-08-08T18:45:42.720Z,3.10
2023-08-08T18:48:09.904Z,3.10
2023-08-08T18:50:37.066Z,3.25
2023-08-08T18:53:04.612Z,2.70
2023-08-08T18:55:31.874Z,3.15
2023-08-08T18:58:00.267Z,2.92
2023-08-08T19:00:28.098Z,3.22
2023-08-08T19:02:55.395Z,3.20
2023-08-08T19:05:22.861Z,2.80
2023-08-08T19:07:50.581Z,3.45
2023-08-08T19:10:18.199Z,3.30
2023-08-08T19:12:45.497Z,3.30
2023-08-08T19:15:12.698Z,3.35
2023-08-08T19:17:54.888Z,3.30
2023-08-08T19:20:23.961Z,3.30
2023-08-08T19:22:51.119Z,3.35
2023-08-08T19:25:18.300Z,3.38
2023-08-08T19:27:45.591Z,3.40
2023-08-08T19:30:13.197Z,3.50
2023-08-08T19:32:40.537Z,3.58
2023-08-08T19:35:07.969Z,3.50
2023-08-08T19:37:35.163Z,3.75
2023-08-08T19:40:02.814Z,3.30
2023-08-08T19:42:29.961Z,3.20
2023-08-08T19:44:57.503Z,3.20
2023-08-08T19:47:24.765Z,3.35
2023-08-08T19:49:51.980Z,3.10
2023-08-08T19:52:19.213Z,3.30
2023-08-08T19:54:46.401Z,3.28
2023-08-08T19:57:13.656Z,3.20
2023-08-08T19:59:40.868Z,3.40
2023-08-08T20:02:08.377Z,3.35
2023-08-08T20:04:35.457Z,3.28
2023-08-08T20:07:03.946Z,3.17
2023-08-08T20:09:31.507Z,3.05
2023-08-08T20:11:59.050Z,3.42
2023-08-08T20:14:26.777Z,3.03
2023-08-08T20:16:53.941Z,3.30
2023-08-08T20:19:21.049Z,3.08
2023-08-08T20:21:48.700Z,3.20
2023-08-08T20:24:15.811Z,3.30
2023-08-08T20:26:42.906Z,3.20
2023-08-08T20:29:10.123Z,3.35
2023-08-08T20:31:37.357Z,3.40
2023-08-08T20:34:04.737Z,3.00
2023-08-08T20:36:31.903Z,3.10
2023-08-08T20:38:59.308Z,3.10
2023-08-08T20:41:26.971Z,3.25
2023-08-08T20:43:54.431Z,3.10
2023-08-08T20:46:21.892Z,3.08
2023-08-08T20:48:52.114Z,3.28
2023-08-08T20:51:19.204Z,3.10
2023-08-08T20:53:46.430Z,3.58
2023-08-08T20:56:13.791Z,3.63
2023-08-08T20:58:40.832Z,3.30
2023-08-08T21:01:08.161Z,4.07
2023-08-08T21:03:35.360Z,3.78
2023-08-08T21:06:02.587Z,3.20
2023-08-08T21:08:35.558Z,3.63
2023-08-08T21:11:03.967Z,3.13
2023-08-08T21:13:31.384Z,3.00
2023-08-08T21:15:58.721Z,3.50
2023-08-08T21:18:26.111Z,3.25
2023-08-08T21:20:53.273Z,3.33
2023-08-08T21:23:20.442Z,3.95
2023-08-08T21:25:47.658Z,3.50
2023-08-08T21:28:14.964Z,3.17
2023-08-08T21:30:42.199Z,3.72
2023-08-08T21:33:09.469Z,3.17
2023-08-08T21:35:36.525Z,3.83
2023-08-08T21:38:04.546Z,3.40
2023-08-08T21:40:31.748Z,3.30
2023-08-08T21:42:59.086Z,3.67
2023-08-08T21:45:26.510Z,3.00
2023-08-08T21:47:53.716Z,3.45
2023-08-08T21:50:20.913Z,3.08
2023-08-08T21:52:48.036Z,2.40
2023-08-08T21:55:15.246Z,2.70
2023-08-08T21:57:42.563Z,2.72
2023-08-08T22:00:14.521Z,2.50
2023-08-08T22:02:43.256Z,2.40
2023-08-08T22:05:10.962Z,2.45
2023-08-08T22:07:38.478Z,2.55
2023-08-08T22:10:06.346Z,2.67
2023-08-08T22:12:33.650Z,2.60
2023-08-08T22:15:00.818Z,2.70
2023-08-08T22:17:28.121Z,2.58
2023-08-08T22:19:55.246Z,2.75
2023-08-08T22:22:22.496Z,3.00
2023-08-08T22:24:49.766Z,2.75
2023-08-08T22:27:17.019Z,2.67
2023-08-08T22:29:44.027Z,2.90
2023-08-08T22:32:11.211Z,2.85
2023-08-08T22:34:38.369Z,2.50
2023-08-08T22:37:05.508Z,2.95
2023-08-08T22:39:32.787Z,2.72
2023-08-08T22:42:00.070Z,2.55
2023-08-08T22:44:27.398Z,2.95
2023-08-08T22:46:54.552Z,3.00
2023-08-08T22:49:21.771Z,3.00
2023-08-08T22:51:50.176Z,3.00
2023-08-08T22:54:17.696Z,3.13
2023-08-08T22:56:44.875Z,3.10
2023-08-08T22:59:12.124Z,3.20
2023-08-08T23:01:39.453Z,3.30
2023-08-08T23:04:07.137Z,3.30
2023-08-08T23:06:34.448Z,2.83
2023-08-08T23:09:01.603Z,3.30
2023-08-08T23:11:29.473Z,3.50
2023-08-08T23:13:56.677Z,3.20
2023-08-08T23:16:23.799Z,3.30
2023-08-08T23:18:53.745Z,3.20
2023-08-08T23:21:21.031Z,3.35
2023-08-08T23:23:48.347Z,3.00
2023-08-08T23:26:15.988Z,3.17
2023-08-08T23:28:44.600Z,3.10
2023-08-08T23:31:12.159Z,3.08
2023-08-08T23:33:39.380Z,3.50
2023-08-08T23:36:08.076Z,3.40
2023-08-08T23:38:35.539Z,3.30
2023-08-08T23:41:04.534Z,3.45
2023-08-08T23:43:32.547Z,3.40
2023-08-08T23:45:59.884Z,3.42
2023-08-08T23:48:27.623Z,3.65
2023-08-08T23:50:55.267Z,3.60
2023-08-08T23:53:25.045Z,3.42
2023-08-08T23:55:52.608Z,4.05
2023-08-08T23:58:19.953Z,4.20
